sensor_id;sensor_type;location;lat;lon;timestamp;P1;durP1;ratioP1;P2;durP2;ratioP2
57071;SDS011;42956;51.366;11.298;2024-01-15T00:03:45;31.73;;;14.77;;
57071;SDS011;42956;51.366;11.298;2024-01-15T00:06:15;31.70;;;15.60;;
57071;SDS011;42956;51.366;11.298;2024-01-15T00:08:45;35.35;;;16.48;;
57071;SDS011;42956;51.366;11.298;2024-01-15T00:11:15;32.88;;;16.98;;
57071;SDS011;42956;51.366;11.298;2024-01-15T00:13:48;31.50;;;17.23;;
57071;SDS011;42956;51.366;11.298;2024-01-15T00:16:18;33.35;;;16.15;;
57071;SDS011;42956;51.366;11.298;2024-01-15T00:18:48;27.65;;;16.10;;
57071;SDS011;42956;51.366;11.298;2024-01-15T00:21:18;33.28;;;15.77;;
57071;SDS011;42956;51.366;11.298;2024-01-15T00:23:48;36.67;;;17.98;;
57071;SDS011;42956;51.366;11.298;2024-01-15T00:26:18;30.83;;;16.75;;
57071;SDS011;42956;51.366;11.298;2024-01-15T00:28:51;28.65;;;16.63;;
57071;SDS011;42956;51.366;11.298;2024-01-15T00:31:21;30.50;;;16.33;;
57071;SDS011;42956;51.366;11.298;2024-01-15T00:33:50;30.58;;;17.20;;
57071;SDS011;42956;51.366;11.298;2024-01-15T00:36:20;33.13;;;18.60;;
57071;SDS011;42956;51.366;11.298;2024-01-15T00:38:51;34.00;;;18.10;;
57071;SDS011;42956;51.366;11.298;2024-01-15T00:41:21;41.30;;;19.52;;
57071;SDS011;42956;51.366;11.298;2024-01-15T00:43:53;34.65;;;17.80;;
57071;SDS011;42956;51.366;11.298;2024-01-15T00:46:23;37.25;;;18.25;;
57071;SDS011;42956;51.366;11.298;2024-01-15T00:48:53;37.00;;;18.42;;
57071;SDS011;42956;51.366;11.298;2024-01-15T00:51:23;40.63;;;18.52;;
57071;SDS011;42956;51.366;11.298;2024-01-15T00:53:53;39.80;;;19.73;;
57071;SDS011;42956;51.366;11.298;2024-01-15T00:56:23;32.17;;;18.35;;
57071;SDS011;42956;51.366;11.298;2024-01-15T00:58:56;42.63;;;18.88;;
57071;SDS011;42956;51.366;11.298;2024-01-15T01:01:25;44.20;;;20.45;;
57071;SDS011;42956;51.366;11.298;2024-01-15T01:03:55;39.00;;;18.02;;
57071;SDS011;42956;51.366;11.298;2024-01-15T01:06:25;36.42;;;19.52;;
57071;SDS011;42956;51.366;11.298;2024-01-15T01:08:59;36.50;;;18.27;;
57071;SDS011;42956;51.366;11.298;2024-01-15T01:11:30;40.22;;;20.65;;
57071;SDS011;42956;51.366;11.298;2024-01-15T01:14:02;39.38;;;19.45;;
57071;SDS011;42956;51.366;11.298;2024-01-15T01:16:32;36.85;;;19.85;;
57071;SDS011;42956;51.366;11.298;2024-01-15T01:19:06;46.33;;;20.50;;
57071;SDS011;42956;51.366;11.298;2024-01-15T01:21:36;37.70;;;20.33;;
57071;SDS011;42956;51.366;11.298;2024-01-15T01:24:06;39.65;;;20.40;;
57071;SDS011;42956;51.366;11.298;2024-01-15T01:26:36;37.35;;;19.58;;
57071;SDS011;42956;51.366;11.298;2024-01-15T01:29:09;40.80;;;19.27;;
57071;SDS011;42956;51.366;11.298;2024-01-15T01:31:42;36.92;;;18.70;;
57071;SDS011;42956;51.366;11.298;2024-01-15T01:34:13;41.72;;;20.00;;
57071;SDS011;42956;51.366;11.298;2024-01-15T01:36:44;35.17;;;19.42;;
57071;SDS011;42956;51.366;11.298;2024-01-15T01:39:13;42.85;;;19.40;;
57071;SDS011;42956;51.366;11.298;2024-01-15T01:41:44;40.33;;;20.23;;
57071;SDS011;42956;51.366;11.298;2024-01-15T01:44:16;44.88;;;19.65;;
57071;SDS011;42956;51.366;11.298;2024-01-15T01:46:46;40.40;;;20.70;;
57071;SDS011;42956;51.366;11.298;2024-01-15T01:49:16;35.78;;;19.60;;
57071;SDS011;42956;51.366;11.298;2024-01-15T01:51:47;42.47;;;20.58;;
57071;SDS011;42956;51.366;11.298;2024-01-15T01:54:17;36.53;;;17.58;;
57071;SDS011;42956;51.366;11.298;2024-01-15T01:56:48;34.20;;;17.95;;
57071;SDS011;42956;51.366;11.298;2024-01-15T01:59:21;34.70;;;18.05;;
57071;SDS011;42956;51.366;11.298;2024-01-15T02:01:52;39.88;;;19.80;;
57071;SDS011;42956;51.366;11.298;2024-01-15T02:04:23;37.30;;;18.73;;
57071;SDS011;42956;51.366;11.298;2024-01-15T02:06:53;39.17;;;18.25;;
57071;SDS011;42956;51.366;11.298;2024-01-15T02:09:23;35.30;;;16.50;;
57071;SDS011;42956;51.366;11.298;2024-01-15T02:11:53;38.25;;;18.48;;
57071;SDS011;42956;51.366;11.298;2024-01-15T02:14:26;31.67;;;17.23;;
57071;SDS011;42956;51.366;11.298;2024-01-15T02:16:56;40.45;;;17.98;;
57071;SDS011;42956;51.366;11.298;2024-01-15T02:19:26;33.83;;;17.98;;
57071;SDS011;42956;51.366;11.298;2024-01-15T02:21:56;37.25;;;17.52;;
57071;SDS011;42956;51.366;11.298;2024-01-15T02:24:28;33.90;;;17.63;;
57071;SDS011;42956;51.366;11.298;2024-01-15T02:30:01;32.67;;;15.80;;
57071;SDS011;42956;51.366;11.298;2024-01-15T02:32:31;33.05;;;16.13;;
57071;SDS011;42956;51.366;11.298;2024-01-15T02:35:01;29.77;;;15.90;;
57071;SDS011;42956;51.366;11.298;2024-01-15T02:37:31;29.00;;;15.73;;
57071;SDS011;42956;51.366;11.298;2024-01-15T02:40:04;31.55;;;16.77;;
57071;SDS011;42956;51.366;11.298;2024-01-15T02:42:34;34.58;;;17.23;;
57071;SDS011;42956;51.366;11.298;2024-01-15T02:45:05;35.70;;;16.98;;
57071;SDS011;42956;51.366;11.298;2024-01-15T02:47:35;41.13;;;15.73;;
57071;SDS011;42956;51.366;11.298;2024-01-15T02:50:05;37.97;;;15.80;;
57071;SDS011;42956;51.366;11.298;2024-01-15T02:52:35;34.08;;;15.60;;
57071;SDS011;42956;51.366;11.298;2024-01-15T02:55:08;33.97;;;15.68;;
57071;SDS011;42956;51.366;11.298;2024-01-15T03:00:09;30.80;;;15.40;;
57071;SDS011;42956;51.366;11.298;2024-01-15T03:02:39;33.42;;;16.00;;
57071;SDS011;42956;51.366;11.298;2024-01-15T03:05:14;32.30;;;15.63;;
57071;SDS011;42956;51.366;11.298;2024-01-15T03:07:44;28.73;;;14.55;;
57071;SDS011;42956;51.366;11.298;2024-01-15T03:10:17;31.73;;;15.10;;
57071;SDS011;42956;51.366;11.298;2024-01-15T03:12:47;26.48;;;13.68;;
57071;SDS011;42956;51.366;11.298;2024-01-15T03:15:17;24.45;;;13.77;;
57071;SDS011;42956;51.366;11.298;2024-01-15T03:17:48;30.38;;;15.18;;
57071;SDS011;42956;51.366;11.298;2024-01-15T03:20:18;31.17;;;15.73;;
57071;SDS011;42956;51.366;11.298;2024-01-15T03:22:47;29.40;;;14.82;;
57071;SDS011;42956;51.366;11.298;2024-01-15T03:25:20;30.15;;;14.88;;
57071;SDS011;42956;51.366;11.298;2024-01-15T03:27:50;28.50;;;14.40;;
57071;SDS011;42956;51.366;11.298;2024-01-15T03:30:20;30.17;;;15.40;;
57071;SDS011;42956;51.366;11.298;2024-01-15T03:32:50;32.88;;;15.30;;
57071;SDS011;42956;51.366;11.298;2024-01-15T03:35:20;32.45;;;14.30;;
57071;SDS011;42956;51.366;11.298;2024-01-15T03:37:50;29.30;;;14.57;;
57071;SDS011;42956;51.366;11.298;2024-01-15T03:40:22;24.20;;;13.65;;
57071;SDS011;42956;51.366;11.298;2024-01-15T03:42:52;26.20;;;12.73;;
57071;SDS011;42956;51.366;11.298;2024-01-15T03:45:22;26.05;;;14.52;;
57071;SDS011;42956;51.366;11.298;2024-01-15T03:47:52;28.85;;;14.30;;
57071;SDS011;42956;51.366;11.298;2024-01-15T03:50:22;26.50;;;12.90;;
57071;SDS011;42956;51.366;11.298;2024-01-15T03:52:52;25.23;;;12.63;;
57071;SDS011;42956;51.366;11.298;2024-01-15T03:55:25;27.30;;;13.18;;
57071;SDS011;42956;51.366;11.298;2024-01-15T04:00:25;25.65;;;12.38;;
57071;SDS011;42956;51.366;11.298;2024-01-15T04:02:54;28.13;;;14.57;;
57071;SDS011;42956;51.366;11.298;2024-01-15T04:05:24;24.70;;;13.77;;
57071;SDS011;42956;51.366;11.298;2024-01-15T04:07:54;25.60;;;12.60;;
57071;SDS011;42956;51.366;11.298;2024-01-15T04:10:27;22.83;;;12.93;;
57071;SDS011;42956;51.366;11.298;2024-01-15T04:12:57;23.55;;;12.38;;
57071;SDS011;42956;51.366;11.298;2024-01-15T04:15:28;28.38;;;13.77;;
57071;SDS011;42956;51.366;11.298;2024-01-15T04:17:58;26.63;;;13.07;;
57071;SDS011;42956;51.366;11.298;2024-01-15T04:20:28;25.95;;;13.05;;
57071;SDS011;42956;51.366;11.298;2024-01-15T04:22:58;19.42;;;11.43;;
57071;SDS011;42956;51.366;11.298;2024-01-15T04:25:31;20.23;;;11.45;;
57071;SDS011;42956;51.366;11.298;2024-01-15T04:30:31;20.60;;;10.43;;
57071;SDS011;42956;51.366;11.298;2024-01-15T04:33:02;22.52;;;12.75;;
57071;SDS011;42956;51.366;11.298;2024-01-15T04:35:32;19.65;;;10.32;;
57071;SDS011;42956;51.366;11.298;2024-01-15T04:38:02;23.58;;;12.45;;
57071;SDS011;42956;51.366;11.298;2024-01-15T04:40:35;19.38;;;11.57;;
57071;SDS011;42956;51.366;11.298;2024-01-15T04:43:04;21.65;;;11.77;;
57071;SDS011;42956;51.366;11.298;2024-01-15T04:45:35;19.77;;;9.95;;
57071;SDS011;42956;51.366;11.298;2024-01-15T04:48:05;16.65;;;9.75;;
57071;SDS011;42956;51.366;11.298;2024-01-15T04:50:35;23.42;;;11.23;;
57071;SDS011;42956;51.366;11.298;2024-01-15T04:53:05;19.00;;;10.45;;
57071;SDS011;42956;51.366;11.298;2024-01-15T04:55:41;22.92;;;10.82;;
57071;SDS011;42956;51.366;11.298;2024-01-15T04:58:11;20.88;;;11.73;;
57071;SDS011;42956;51.366;11.298;2024-01-15T05:00:41;24.20;;;11.75;;
57071;SDS011;42956;51.366;11.298;2024-01-15T05:03:11;19.63;;;10.50;;
57071;SDS011;42956;51.366;11.298;2024-01-15T05:05:41;18.50;;;10.50;;
57071;SDS011;42956;51.366;11.298;2024-01-15T05:08:11;22.80;;;11.02;;
57071;SDS011;42956;51.366;11.298;2024-01-15T05:10:43;17.10;;;10.18;;
57071;SDS011;42956;51.366;11.298;2024-01-15T05:13:14;26.08;;;10.65;;
57071;SDS011;42956;51.366;11.298;2024-01-15T05:15:43;23.63;;;10.98;;
57071;SDS011;42956;51.366;11.298;2024-01-15T05:18:14;18.40;;;10.48;;
57071;SDS011;42956;51.366;11.298;2024-01-15T05:20:44;23.40;;;9.73;;
57071;SDS011;42956;51.366;11.298;2024-01-15T05:23:14;19.50;;;11.45;;
57071;SDS011;42956;51.366;11.298;2024-01-15T05:25:47;17.85;;;9.70;;
57071;SDS011;42956;51.366;11.298;2024-01-15T05:28:17;17.85;;;9.63;;
57071;SDS011;42956;51.366;11.298;2024-01-15T05:30:47;15.40;;;9.85;;
57071;SDS011;42956;51.366;11.298;2024-01-15T05:33:18;18.58;;;9.00;;
57071;SDS011;42956;51.366;11.298;2024-01-15T05:35:48;19.08;;;8.55;;
57071;SDS011;42956;51.366;11.298;2024-01-15T05:38:19;14.98;;;8.30;;
57071;SDS011;42956;51.366;11.298;2024-01-15T05:40:51;20.40;;;8.82;;
57071;SDS011;42956;51.366;11.298;2024-01-15T05:43:21;18.02;;;8.77;;
57071;SDS011;42956;51.366;11.298;2024-01-15T05:45:51;20.65;;;10.52;;
57071;SDS011;42956;51.366;11.298;2024-01-15T05:48:21;21.25;;;9.32;;
57071;SDS011;42956;51.366;11.298;2024-01-15T05:50:51;18.75;;;8.80;;
57071;SDS011;42956;51.366;11.298;2024-01-15T05:53:21;15.02;;;8.98;;
57071;SDS011;42956;51.366;11.298;2024-01-15T05:55:53;18.20;;;8.13;;
57071;SDS011;42956;51.366;11.298;2024-01-15T05:58:23;25.00;;;8.73;;
57071;SDS011;42956;51.366;11.298;2024-01-15T06:00:53;15.93;;;8.68;;
57071;SDS011;42956;51.366;11.298;2024-01-15T06:03:23;13.13;;;8.70;;
57071;SDS011;42956;51.366;11.298;2024-01-15T06:05:53;14.52;;;8.65;;
57071;SDS011;42956;51.366;11.298;2024-01-15T06:08:23;17.10;;;9.32;;
57071;SDS011;42956;51.366;11.298;2024-01-15T06:10:58;15.73;;;8.05;;
57071;SDS011;42956;51.366;11.298;2024-01-15T06:13:28;14.85;;;8.75;;
57071;SDS011;42956;51.366;11.298;2024-01-15T06:15:58;25.05;;;9.15;;
57071;SDS011;42956;51.366;11.298;2024-01-15T06:18:28;17.73;;;9.05;;
57071;SDS011;42956;51.366;11.298;2024-01-15T06:20:58;18.38;;;9.70;;
57071;SDS011;42956;51.366;11.298;2024-01-15T06:23:28;16.13;;;8.88;;
57071;SDS011;42956;51.366;11.298;2024-01-15T06:26:00;15.63;;;9.15;;
57071;SDS011;42956;51.366;11.298;2024-01-15T06:28:30;19.33;;;9.95;;
57071;SDS011;42956;51.366;11.298;2024-01-15T06:31:00;19.98;;;10.10;;
57071;SDS011;42956;51.366;11.298;2024-01-15T06:33:31;15.98;;;8.77;;
57071;SDS011;42956;51.366;11.298;2024-01-15T06:36:01;11.98;;;7.45;;
57071;SDS011;42956;51.366;11.298;2024-01-15T06:38:31;13.50;;;8.35;;
57071;SDS011;42956;51.366;11.298;2024-01-15T06:41:04;17.73;;;9.60;;
57071;SDS011;42956;51.366;11.298;2024-01-15T06:46:07;15.90;;;8.70;;
57071;SDS011;42956;51.366;11.298;2024-01-15T06:48:37;17.95;;;7.45;;
57071;SDS011;42956;51.366;11.298;2024-01-15T06:51:07;17.92;;;8.20;;
57071;SDS011;42956;51.366;11.298;2024-01-15T06:53:37;15.05;;;8.27;;
57071;SDS011;42956;51.366;11.298;2024-01-15T06:56:09;11.75;;;7.03;;
57071;SDS011;42956;51.366;11.298;2024-01-15T06:58:41;13.05;;;7.65;;
57071;SDS011;42956;51.366;11.298;2024-01-15T07:01:11;14.48;;;8.18;;
57071;SDS011;42956;51.366;11.298;2024-01-15T07:03:41;12.85;;;7.10;;
57071;SDS011;42956;51.366;11.298;2024-01-15T07:06:12;17.30;;;9.65;;
57071;SDS011;42956;51.366;11.298;2024-01-15T07:08:42;14.13;;;8.05;;
57071;SDS011;42956;51.366;11.298;2024-01-15T07:11:14;10.98;;;7.53;;
57071;SDS011;42956;51.366;11.298;2024-01-15T07:13:44;15.57;;;8.10;;
57071;SDS011;42956;51.366;11.298;2024-01-15T07:16:15;16.70;;;9.07;;
57071;SDS011;42956;51.366;11.298;2024-01-15T07:19:03;16.38;;;7.78;;
57071;SDS011;42956;51.366;11.298;2024-01-15T07:21:33;13.05;;;7.80;;
57071;SDS011;42956;51.366;11.298;2024-01-15T07:24:03;14.57;;;8.70;;
57071;SDS011;42956;51.366;11.298;2024-01-15T07:26:35;18.08;;;8.63;;
57071;SDS011;42956;51.366;11.298;2024-01-15T07:29:05;15.02;;;8.77;;
57071;SDS011;42956;51.366;11.298;2024-01-15T07:31:35;14.63;;;8.70;;
57071;SDS011;42956;51.366;11.298;2024-01-15T07:34:05;27.13;;;9.57;;
57071;SDS011;42956;51.366;11.298;2024-01-15T07:36:36;15.55;;;9.13;;
57071;SDS011;42956;51.366;11.298;2024-01-15T07:39:05;20.58;;;9.65;;
57071;SDS011;42956;51.366;11.298;2024-01-15T07:41:38;11.82;;;8.23;;
57071;SDS011;42956;51.366;11.298;2024-01-15T07:44:08;14.65;;;8.98;;
57071;SDS011;42956;51.366;11.298;2024-01-15T07:46:38;17.17;;;8.35;;
57071;SDS011;42956;51.366;11.298;2024-01-15T07:49:09;15.32;;;7.90;;
57071;SDS011;42956;51.366;11.298;2024-01-15T07:51:39;23.33;;;10.75;;
57071;SDS011;42956;51.366;11.298;2024-01-15T07:54:10;18.77;;;9.82;;
57071;SDS011;42956;51.366;11.298;2024-01-15T07:56:56;19.05;;;8.63;;
57071;SDS011;42956;51.366;11.298;2024-01-15T07:59:26;21.42;;;9.98;;
57071;SDS011;42956;51.366;11.298;2024-01-15T08:01:56;22.08;;;10.00;;
57071;SDS011;42956;51.366;11.298;2024-01-15T08:04:26;22.90;;;11.52;;
57071;SDS011;42956;51.366;11.298;2024-01-15T08:06:56;23.20;;;10.68;;
57071;SDS011;42956;51.366;11.298;2024-01-15T08:09:26;25.25;;;9.50;;
57071;SDS011;42956;51.366;11.298;2024-01-15T08:11:59;17.70;;;9.52;;
57071;SDS011;42956;51.366;11.298;2024-01-15T08:14:29;21.48;;;10.23;;
57071;SDS011;42956;51.366;11.298;2024-01-15T08:17:05;23.35;;;10.85;;
57071;SDS011;42956;51.366;11.298;2024-01-15T08:19:35;28.73;;;12.90;;
57071;SDS011;42956;51.366;11.298;2024-01-15T08:24:38;26.77;;;11.23;;
57071;SDS011;42956;51.366;11.298;2024-01-15T08:27:10;25.35;;;11.55;;
57071;SDS011;42956;51.366;11.298;2024-01-15T08:29:40;21.95;;;11.23;;
57071;SDS011;42956;51.366;11.298;2024-01-15T08:32:11;20.00;;;10.88;;
57071;SDS011;42956;51.366;11.298;2024-01-15T08:34:42;23.48;;;10.07;;
57071;SDS011;42956;51.366;11.298;2024-01-15T08:37:14;17.33;;;9.75;;
57071;SDS011;42956;51.366;11.298;2024-01-15T08:39:44;27.63;;;10.18;;
57071;SDS011;42956;51.366;11.298;2024-01-15T08:42:20;21.75;;;10.10;;
57071;SDS011;42956;51.366;11.298;2024-01-15T08:44:50;19.33;;;9.82;;
57071;SDS011;42956;51.366;11.298;2024-01-15T08:47:29;20.23;;;10.30;;
57071;SDS011;42956;51.366;11.298;2024-01-15T08:49:59;19.63;;;9.82;;
57071;SDS011;42956;51.366;11.298;2024-01-15T08:52:29;23.60;;;11.38;;
57071;SDS011;42956;51.366;11.298;2024-01-15T08:54:58;20.63;;;10.02;;
57071;SDS011;42956;51.366;11.298;2024-01-15T08:57:31;18.33;;;10.82;;
57071;SDS011;42956;51.366;11.298;2024-01-15T09:00:01;16.90;;;9.05;;
57071;SDS011;42956;51.366;11.298;2024-01-15T09:02:31;20.00;;;10.27;;
57071;SDS011;42956;51.366;11.298;2024-01-15T09:05:01;18.35;;;10.35;;
57071;SDS011;42956;51.366;11.298;2024-01-15T09:07:31;21.33;;;9.82;;
57071;SDS011;42956;51.366;11.298;2024-01-15T09:10:01;20.33;;;10.07;;
57071;SDS011;42956;51.366;11.298;2024-01-15T09:12:34;20.00;;;9.50;;
57071;SDS011;42956;51.366;11.298;2024-01-15T09:15:06;19.27;;;9.85;;
57071;SDS011;42956;51.366;11.298;2024-01-15T09:17:36;18.13;;;9.15;;
57071;SDS011;42956;51.366;11.298;2024-01-15T09:20:07;15.88;;;9.43;;
57071;SDS011;42956;51.366;11.298;2024-01-15T09:22:38;16.58;;;8.52;;
57071;SDS011;42956;51.366;11.298;2024-01-15T09:25:12;18.20;;;9.25;;
57071;SDS011;42956;51.366;11.298;2024-01-15T09:27:44;16.58;;;9.70;;
57071;SDS011;42956;51.366;11.298;2024-01-15T09:30:15;18.77;;;9.93;;
57071;SDS011;42956;51.366;11.298;2024-01-15T09:32:45;19.70;;;11.00;;
57071;SDS011;42956;51.366;11.298;2024-01-15T09:35:15;26.92;;;11.95;;
57071;SDS011;42956;51.366;11.298;2024-01-15T09:37:49;25.33;;;11.00;;
57071;SDS011;42956;51.366;11.298;2024-01-15T09:40:18;21.38;;;11.55;;
57071;SDS011;42956;51.366;11.298;2024-01-15T09:42:52;17.60;;;10.50;;
57071;SDS011;42956;51.366;11.298;2024-01-15T09:45:22;20.42;;;10.73;;
57071;SDS011;42956;51.366;11.298;2024-01-15T09:47:52;21.40;;;11.32;;
57071;SDS011;42956;51.366;11.298;2024-01-15T09:50:22;17.15;;;9.30;;
57071;SDS011;42956;51.366;11.298;2024-01-15T09:52:53;20.50;;;10.65;;
57071;SDS011;42956;51.366;11.298;2024-01-15T09:55:24;21.30;;;10.63;;
57071;SDS011;42956;51.366;11.298;2024-01-15T09:57:57;26.27;;;11.40;;
57071;SDS011;42956;51.366;11.298;2024-01-15T10:00:29;16.33;;;9.98;;
57071;SDS011;42956;51.366;11.298;2024-01-15T10:02:59;29.75;;;10.38;;
57071;SDS011;42956;51.366;11.298;2024-01-15T10:05:29;27.27;;;11.85;;
57071;SDS011;42956;51.366;11.298;2024-01-15T10:07:59;19.58;;;10.13;;
57071;SDS011;42956;51.366;11.298;2024-01-15T10:10:30;21.77;;;10.40;;
57071;SDS011;42956;51.366;11.298;2024-01-15T10:13:03;21.05;;;10.85;;
57071;SDS011;42956;51.366;11.298;2024-01-15T10:15:34;18.45;;;10.73;;
57071;SDS011;42956;51.366;11.298;2024-01-15T10:18:05;23.17;;;10.73;;
57071;SDS011;42956;51.366;11.298;2024-01-15T10:20:35;21.92;;;11.13;;
57071;SDS011;42956;51.366;11.298;2024-01-15T10:23:05;25.05;;;11.25;;
57071;SDS011;42956;51.366;11.298;2024-01-15T10:25:35;21.25;;;10.40;;
57071;SDS011;42956;51.366;11.298;2024-01-15T10:28:08;23.33;;;10.93;;
57071;SDS011;42956;51.366;11.298;2024-01-15T10:30:38;21.35;;;11.45;;
57071;SDS011;42956;51.366;11.298;2024-01-15T10:33:08;20.90;;;10.77;;
57071;SDS011;42956;51.366;11.298;2024-01-15T10:35:39;23.30;;;12.02;;
57071;SDS011;42956;51.366;11.298;2024-01-15T10:38:10;19.80;;;11.30;;
57071;SDS011;42956;51.366;11.298;2024-01-15T10:40:40;20.88;;;11.98;;
57071;SDS011;42956;51.366;11.298;2024-01-15T10:43:12;23.67;;;11.80;;
57071;SDS011;42956;51.366;11.298;2024-01-15T10:45:42;22.67;;;11.18;;
57071;SDS011;42956;51.366;11.298;2024-01-15T10:48:13;24.60;;;12.88;;
57071;SDS011;42956;51.366;11.298;2024-01-15T10:50:43;19.30;;;10.32;;
57071;SDS011;42956;51.366;11.298;2024-01-15T10:53:14;22.55;;;11.68;;
57071;SDS011;42956;51.366;11.298;2024-01-15T10:55:44;16.88;;;10.48;;
57071;SDS011;42956;51.366;11.298;2024-01-15T10:58:18;21.20;;;10.25;;
57071;SDS011;42956;51.366;11.298;2024-01-15T11:00:50;26.52;;;11.40;;
57071;SDS011;42956;51.366;11.298;2024-01-15T11:03:20;24.33;;;12.52;;
57071;SDS011;42956;51.366;11.298;2024-01-15T11:05:50;25.25;;;13.20;;
57071;SDS011;42956;51.366;11.298;2024-01-15T11:08:20;21.30;;;11.05;;
57071;SDS011;42956;51.366;11.298;2024-01-15T11:10:51;18.58;;;11.25;;
57071;SDS011;42956;51.366;11.298;2024-01-15T11:13:40;24.95;;;12.35;;
57071;SDS011;42956;51.366;11.298;2024-01-15T11:16:11;22.52;;;11.00;;
57071;SDS011;42956;51.366;11.298;2024-01-15T11:18:42;24.58;;;12.48;;
57071;SDS011;42956;51.366;11.298;2024-01-15T11:21:25;21.17;;;11.32;;
57071;SDS011;42956;51.366;11.298;2024-01-15T11:23:57;22.40;;;11.82;;
57071;SDS011;42956;51.366;11.298;2024-01-15T11:26:28;24.42;;;11.90;;
57071;SDS011;42956;51.366;11.298;2024-01-15T11:28:59;17.75;;;10.13;;
57071;SDS011;42956;51.366;11.298;2024-01-15T11:34:18;15.63;;;7.63;;
57071;SDS011;42956;51.366;11.298;2024-01-15T11:37:00;15.48;;;9.43;;
57071;SDS011;42956;51.366;11.298;2024-01-15T11:39:39;13.85;;;8.38;;
57071;SDS011;42956;51.366;11.298;2024-01-15T11:42:10;15.13;;;7.30;;
57071;SDS011;42956;51.366;11.298;2024-01-15T11:44:43;15.60;;;7.70;;
57071;SDS011;42956;51.366;11.298;2024-01-15T11:52:31;17.73;;;7.90;;
57071;SDS011;42956;51.366;11.298;2024-01-15T11:55:06;18.92;;;9.07;;
57071;SDS011;42956;51.366;11.298;2024-01-15T11:57:42;16.20;;;8.38;;
57071;SDS011;42956;51.366;11.298;2024-01-15T12:00:18;13.55;;;7.55;;
57071;SDS011;42956;51.366;11.298;2024-01-15T12:02:48;18.48;;;8.82;;
57071;SDS011;42956;51.366;11.298;2024-01-15T12:05:19;13.40;;;7.93;;
57071;SDS011;42956;51.366;11.298;2024-01-15T12:07:49;12.23;;;6.97;;
57071;SDS011;42956;51.366;11.298;2024-01-15T12:10:20;17.50;;;7.75;;
57071;SDS011;42956;51.366;11.298;2024-01-15T12:12:57;13.18;;;6.70;;
57071;SDS011;42956;51.366;11.298;2024-01-15T12:15:30;18.30;;;7.90;;
57071;SDS011;42956;51.366;11.298;2024-01-15T12:20:30;12.45;;;6.78;;
57071;SDS011;42956;51.366;11.298;2024-01-15T12:23:01;18.48;;;10.38;;
57071;SDS011;42956;51.366;11.298;2024-01-15T12:25:34;13.88;;;8.40;;
57071;SDS011;42956;51.366;11.298;2024-01-15T12:28:05;15.55;;;8.68;;
57071;SDS011;42956;51.366;11.298;2024-01-15T12:30:38;10.50;;;7.40;;
57071;SDS011;42956;51.366;11.298;2024-01-15T12:33:08;13.32;;;7.25;;
57071;SDS011;42956;51.366;11.298;2024-01-15T12:35:38;16.58;;;8.75;;
57071;SDS011;42956;51.366;11.298;2024-01-15T12:38:10;16.63;;;7.93;;
57071;SDS011;42956;51.366;11.298;2024-01-15T12:40:40;19.65;;;8.15;;
57071;SDS011;42956;51.366;11.298;2024-01-15T12:43:13;12.20;;;7.60;;
57071;SDS011;42956;51.366;11.298;2024-01-15T12:45:45;12.48;;;6.97;;
57071;SDS011;42956;51.366;11.298;2024-01-15T12:48:15;12.30;;;6.85;;
57071;SDS011;42956;51.366;11.298;2024-01-15T12:50:45;20.83;;;9.50;;
57071;SDS011;42956;51.366;11.298;2024-01-15T12:53:15;14.82;;;8.07;;
57071;SDS011;42956;51.366;11.298;2024-01-15T12:55:45;18.20;;;9.73;;
57071;SDS011;42956;51.366;11.298;2024-01-15T12:58:15;18.88;;;9.25;;
57071;SDS011;42956;51.366;11.298;2024-01-15T13:00:49;14.55;;;8.43;;
57071;SDS011;42956;51.366;11.298;2024-01-15T13:03:19;11.73;;;6.25;;
57071;SDS011;42956;51.366;11.298;2024-01-15T13:05:50;13.95;;;7.47;;
57071;SDS011;42956;51.366;11.298;2024-01-15T13:08:20;14.48;;;8.20;;
57071;SDS011;42956;51.366;11.298;2024-01-15T13:10:52;16.03;;;8.20;;
57071;SDS011;42956;51.366;11.298;2024-01-15T13:13:23;17.33;;;9.15;;
57071;SDS011;42956;51.366;11.298;2024-01-15T13:15:57;16.58;;;7.97;;
57071;SDS011;42956;51.366;11.298;2024-01-15T13:18:27;11.95;;;7.85;;
57071;SDS011;42956;51.366;11.298;2024-01-15T13:20:58;16.27;;;8.32;;
57071;SDS011;42956;51.366;11.298;2024-01-15T13:23:29;16.50;;;9.05;;
57071;SDS011;42956;51.366;11.298;2024-01-15T13:25:59;21.48;;;8.95;;
57071;SDS011;42956;51.366;11.298;2024-01-15T13:28:29;18.42;;;9.23;;
57071;SDS011;42956;51.366;11.298;2024-01-15T13:31:02;20.38;;;9.80;;
57071;SDS011;42956;51.366;11.298;2024-01-15T13:36:02;13.00;;;5.80;;
57071;SDS011;42956;51.366;11.298;2024-01-15T13:38:35;11.13;;;4.70;;
57071;SDS011;42956;51.366;11.298;2024-01-15T13:41:05;7.35;;;4.88;;
57071;SDS011;42956;51.366;11.298;2024-01-15T13:43:35;9.43;;;4.93;;
57071;SDS011;42956;51.366;11.298;2024-01-15T13:46:07;8.63;;;5.55;;
57071;SDS011;42956;51.366;11.298;2024-01-15T13:48:37;7.20;;;4.50;;
57071;SDS011;42956;51.366;11.298;2024-01-15T13:51:07;7.47;;;4.28;;
57071;SDS011;42956;51.366;11.298;2024-01-15T13:53:38;15.38;;;7.22;;
57071;SDS011;42956;51.366;11.298;2024-01-15T13:56:08;11.25;;;6.03;;
57071;SDS011;42956;51.366;11.298;2024-01-15T13:58:39;9.50;;;5.68;;
57071;SDS011;42956;51.366;11.298;2024-01-15T14:01:12;10.52;;;5.38;;
57071;SDS011;42956;51.366;11.298;2024-01-15T14:03:42;31.33;;;21.70;;
57071;SDS011;42956;51.366;11.298;2024-01-15T14:06:12;12.50;;;6.85;;
57071;SDS011;42956;51.366;11.298;2024-01-15T14:08:42;7.55;;;3.65;;
57071;SDS011;42956;51.366;11.298;2024-01-15T14:11:12;10.38;;;3.97;;
57071;SDS011;42956;51.366;11.298;2024-01-15T14:13:42;10.32;;;4.07;;
57071;SDS011;42956;51.366;11.298;2024-01-15T14:16:16;4.88;;;4.22;;
57071;SDS011;42956;51.366;11.298;2024-01-15T14:18:51;8.18;;;3.33;;
57071;SDS011;42956;51.366;11.298;2024-01-15T14:21:22;7.88;;;3.47;;
57071;SDS011;42956;51.366;11.298;2024-01-15T14:23:51;8.27;;;3.97;;
57071;SDS011;42956;51.366;11.298;2024-01-15T14:26:21;8.90;;;3.92;;
57071;SDS011;42956;51.366;11.298;2024-01-15T14:28:51;6.80;;;4.65;;
57071;SDS011;42956;51.366;11.298;2024-01-15T14:31:23;8.27;;;4.47;;
57071;SDS011;42956;51.366;11.298;2024-01-15T14:33:55;11.27;;;5.65;;
57071;SDS011;42956;51.366;11.298;2024-01-15T14:36:26;19.33;;;7.18;;
57071;SDS011;42956;51.366;11.298;2024-01-15T14:38:57;23.33;;;10.38;;
57071;SDS011;42956;51.366;11.298;2024-01-15T14:41:26;32.05;;;14.50;;
57071;SDS011;42956;51.366;11.298;2024-01-15T14:43:57;34.88;;;17.00;;
57071;SDS011;42956;51.366;11.298;2024-01-15T14:46:29;11.88;;;7.07;;
57071;SDS011;42956;51.366;11.298;2024-01-15T14:48:59;12.18;;;7.22;;
57071;SDS011;42956;51.366;11.298;2024-01-15T14:51:29;9.07;;;5.43;;
57071;SDS011;42956;51.366;11.298;2024-01-15T14:53:59;12.00;;;6.40;;
57071;SDS011;42956;51.366;11.298;2024-01-15T14:56:29;6.10;;;4.60;;
57071;SDS011;42956;51.366;11.298;2024-01-15T14:58:59;10.32;;;6.50;;
57071;SDS011;42956;51.366;11.298;2024-01-15T15:01:32;11.45;;;6.55;;
57071;SDS011;42956;51.366;11.298;2024-01-15T15:04:02;11.13;;;6.28;;
57071;SDS011;42956;51.366;11.298;2024-01-15T15:06:33;10.77;;;6.78;;
57071;SDS011;42956;51.366;11.298;2024-01-15T15:09:02;9.65;;;5.32;;